sensor_id;sensor_type;location;lat;lon;timestamp;temperature;humidity
64468;DHT22;50853;46.836;16.820;2024-02-26T00:01:42;10.20;89.40
64468;DHT22;50853;46.836;16.820;2024-02-26T00:04:12;10.20;89.30
64468;DHT22;50853;46.836;16.820;2024-02-26T00:06:38;10.20;89.30
64468;DHT22;50853;46.836;16.820;2024-02-26T00:09:08;10.20;89.30
64468;DHT22;50853;46.836;16.820;2024-02-26T00:11:37;10.20;89.30
64468;DHT22;50853;46.836;16.820;2024-02-26T00:14:03;10.20;89.30
64468;DHT22;50853;46.836;16.820;2024-02-26T00:16:30;10.20;89.30
64468;DHT22;50853;46.836;16.820;2024-02-26T00:18:56;10.20;89.20
64468;DHT22;50853;46.836;16.820;2024-02-26T00:21:21;10.20;89.20
64468;DHT22;50853;46.836;16.820;2024-02-26T00:23:49;10.20;89.20
64468;DHT22;50853;46.836;16.820;2024-02-26T00:26:14;10.20;89.10
64468;DHT22;50853;46.836;16.820;2024-02-26T00:28:41;10.20;89.10
64468;DHT22;50853;46.836;16.820;2024-02-26T00:31:06;10.20;89.10
64468;DHT22;50853;46.836;16.820;2024-02-26T00:33:32;10.20;89.00
64468;DHT22;50853;46.836;16.820;2024-02-26T00:35:58;10.10;89.00
64468;DHT22;50853;46.836;16.820;2024-02-26T00:38:24;10.10;89.00
64468;DHT22;50853;46.836;16.820;2024-02-26T00:40:50;10.10;88.90
64468;DHT22;50853;46.836;16.820;2024-02-26T00:43:16;10.10;88.90
64468;DHT22;50853;46.836;16.820;2024-02-26T00:45:41;10.10;88.90
64468;DHT22;50853;46.836;16.820;2024-02-26T00:48:07;10.10;88.90
64468;DHT22;50853;46.836;16.820;2024-02-26T00:50:34;10.10;88.70
64468;DHT22;50853;46.836;16.820;2024-02-26T00:53:00;10.10;88.70
64468;DHT22;50853;46.836;16.820;2024-02-26T00:55:26;10.10;88.70
64468;DHT22;50853;46.836;16.820;2024-02-26T00:57:52;10.10;88.70
64468;DHT22;50853;46.836;16.820;2024-02-26T01:00:18;10.10;88.60
64468;DHT22;50853;46.836;16.820;2024-02-26T01:02:44;10.20;88.70
64468;DHT22;50853;46.836;16.820;2024-02-26T01:05:13;10.10;88.60
64468;DHT22;50853;46.836;16.820;2024-02-26T01:07:39;10.10;88.60
64468;DHT22;50853;46.836;16.820;2024-02-26T01:10:06;10.10;88.50
64468;DHT22;50853;46.836;16.820;2024-02-26T01:12:33;10.10;88.50
64468;DHT22;50853;46.836;16.820;2024-02-26T01:15:00;10.10;88.50
64468;DHT22;50853;46.836;16.820;2024-02-26T01:17:26;10.10;88.40
64468;DHT22;50853;46.836;16.820;2024-02-26T01:19:52;10.10;88.40
64468;DHT22;50853;46.836;16.820;2024-02-26T01:22:19;10.10;88.60
64468;DHT22;50853;46.836;16.820;2024-02-26T01:24:45;10.10;88.30
64468;DHT22;50853;46.836;16.820;2024-02-26T01:27:10;10.10;88.40
64468;DHT22;50853;46.836;16.820;2024-02-26T01:29:36;10.10;88.30
64468;DHT22;50853;46.836;16.820;2024-02-26T01:32:02;10.10;88.40
64468;DHT22;50853;46.836;16.820;2024-02-26T01:34:30;10.10;88.40
64468;DHT22;50853;46.836;16.820;2024-02-26T01:36:56;10.10;88.60
64468;DHT22;50853;46.836;16.820;2024-02-26T01:39:22;10.10;88.40
64468;DHT22;50853;46.836;16.820;2024-02-26T01:41:48;10.10;88.60
64468;DHT22;50853;46.836;16.820;2024-02-26T01:44:13;10.10;89.00
64468;DHT22;50853;46.836;16.820;2024-02-26T01:46:39;10.10;88.10
64468;DHT22;50853;46.836;16.820;2024-02-26T01:49:06;10.10;88.30
64468;DHT22;50853;46.836;16.820;2024-02-26T01:51:33;10.10;88.20
64468;DHT22;50853;46.836;16.820;2024-02-26T01:54:02;10.10;87.80
64468;DHT22;50853;46.836;16.820;2024-02-26T01:56:29;10.00;87.60
64468;DHT22;50853;46.836;16.820;2024-02-26T01:58:58;10.00;87.30
64468;DHT22;50853;46.836;16.820;2024-02-26T02:01:29;10.00;87.30
64468;DHT22;50853;46.836;16.820;2024-02-26T02:03:58;10.00;87.30
64468;DHT22;50853;46.836;16.820;2024-02-26T02:06:24;10.00;87.50
64468;DHT22;50853;46.836;16.820;2024-02-26T02:08:51;10.10;86.90
64468;DHT22;50853;46.836;16.820;2024-02-26T02:11:16;10.00;86.80
64468;DHT22;50853;46.836;16.820;2024-02-26T02:13:43;10.00;86.70
64468;DHT22;50853;46.836;16.820;2024-02-26T02:16:09;10.00;86.80
64468;DHT22;50853;46.836;16.820;2024-02-26T02:18:34;10.00;86.90
64468;DHT22;50853;46.836;16.820;2024-02-26T02:21:01;10.00;86.90
64468;DHT22;50853;46.836;16.820;2024-02-26T02:23:27;10.00;86.90
64468;DHT22;50853;46.836;16.820;2024-02-26T02:25:53;10.00;87.20
64468;DHT22;50853;46.836;16.820;2024-02-26T02:28:21;10.00;86.80
64468;DHT22;50853;46.836;16.820;2024-02-26T02:30:49;10.00;87.50
64468;DHT22;50853;46.836;16.820;2024-02-26T02:33:15;10.00;87.60
64468;DHT22;50853;46.836;16.820;2024-02-26T02:35:41;10.00;87.70
64468;DHT22;50853;46.836;16.820;2024-02-26T02:38:07;10.00;88.20
64468;DHT22;50853;46.836;16.820;2024-02-26T02:40:33;10.00;88.10
64468;DHT22;50853;46.836;16.820;2024-02-26T02:42:59;10.00;88.40
64468;DHT22;50853;46.836;16.820;2024-02-26T02:45:27;10.00;88.20
64468;DHT22;50853;46.836;16.820;2024-02-26T02:47:53;10.00;87.70
64468;DHT22;50853;46.836;16.820;2024-02-26T02:50:19;10.00;88.50
64468;DHT22;50853;46.836;16.820;2024-02-26T02:52:48;10.00;88.50
64468;DHT22;50853;46.836;16.820;2024-02-26T02:55:16;10.00;88.50
64468;DHT22;50853;46.836;16.820;2024-02-26T02:57:42;10.00;88.10
64468;DHT22;50853;46.836;16.820;2024-02-26T03:00:09;10.00;87.90
64468;DHT22;50853;46.836;16.820;2024-02-26T03:02:35;10.00;88.40
64468;DHT22;50853;46.836;16.820;2024-02-26T03:05:05;10.00;87.50
64468;DHT22;50853;46.836;16.820;2024-02-26T03:07:31;10.00;87.90
64468;DHT22;50853;46.836;16.820;2024-02-26T03:09:57;10.00;87.50
64468;DHT22;50853;46.836;16.820;2024-02-26T03:12:23;10.00;87.20
64468;DHT22;50853;46.836;16.820;2024-02-26T03:14:49;10.00;87.40
64468;DHT22;50853;46.836;16.820;2024-02-26T03:17:15;10.00;87.60
64468;DHT22;50853;46.836;16.820;2024-02-26T03:19:40;9.90;87.30
64468;DHT22;50853;46.836;16.820;2024-02-26T03:22:07;9.90;87.40
64468;DHT22;50853;46.836;16.820;2024-02-26T03:24:33;10.00;87.70
64468;DHT22;50853;46.836;16.820;2024-02-26T03:26:59;9.90;87.40
64468;DHT22;50853;46.836;16.820;2024-02-26T03:29:24;10.00;87.40
64468;DHT22;50853;46.836;16.820;2024-02-26T03:31:50;9.90;87.50
64468;DHT22;50853;46.836;16.820;2024-02-26T03:34:16;9.90;87.00
64468;DHT22;50853;46.836;16.820;2024-02-26T03:36:44;10.00;87.30
64468;DHT22;50853;46.836;16.820;2024-02-26T03:39:10;9.90;87.00
64468;DHT22;50853;46.836;16.820;2024-02-26T03:41:36;9.90;87.40
64468;DHT22;50853;46.836;16.820;2024-02-26T03:44:02;9.90;87.60
64468;DHT22;50853;46.836;16.820;2024-02-26T03:46:28;9.90;87.60
64468;DHT22;50853;46.836;16.820;2024-02-26T03:48:54;9.90;87.60
64468;DHT22;50853;46.836;16.820;2024-02-26T03:51:20;9.90;87.80
64468;DHT22;50853;46.836;16.820;2024-02-26T03:53:46;9.90;87.60
64468;DHT22;50853;46.836;16.820;2024-02-26T03:56:12;9.90;87.50
64468;DHT22;50853;46.836;16.820;2024-02-26T03:58:41;9.90;87.30
64468;DHT22;50853;46.836;16.820;2024-02-26T04:01:08;9.90;87.60
64468;DHT22;50853;46.836;16.820;2024-02-26T04:03:35;9.90;87.50
64468;DHT22;50853;46.836;16.820;2024-02-26T04:06:02;9.90;88.00
64468;DHT22;50853;46.836;16.820;2024-02-26T04:08:28;9.90;87.40
64468;DHT22;50853;46.836;16.820;2024-02-26T04:10:54;9.90;87.80
64468;DHT22;50853;46.836;16.820;2024-02-26T04:13:20;9.90;87.60
64468;DHT22;50853;46.836;16.820;2024-02-26T04:15:45;9.90;87.90
64468;DHT22;50853;46.836;16.820;2024-02-26T04:18:12;9.90;87.40
64468;DHT22;50853;46.836;16.820;2024-02-26T04:20:38;9.90;87.70
64468;DHT22;50853;46.836;16.820;2024-02-26T04:23:04;9.90;88.10
64468;DHT22;50853;46.836;16.820;2024-02-26T04:25:30;9.90;88.10
64468;DHT22;50853;46.836;16.820;2024-02-26T04:27:56;9.90;87.80
64468;DHT22;50853;46.836;16.820;2024-02-26T04:30:22;9.90;87.30
64468;DHT22;50853;46.836;16.820;2024-02-26T04:32:48;9.90;87.30
64468;DHT22;50853;46.836;16.820;2024-02-26T04:35:14;9.90;87.40
64468;DHT22;50853;46.836;16.820;2024-02-26T04:37:40;9.90;87.50
64468;DHT22;50853;46.836;16.820;2024-02-26T04:40:06;9.90;87.70
64468;DHT22;50853;46.836;16.820;2024-02-26T04:42:33;9.90;88.20
64468;DHT22;50853;46.836;16.820;2024-02-26T04:44:59;9.90;88.10
64468;DHT22;50853;46.836;16.820;2024-02-26T04:47:25;9.90;88.20
64468;DHT22;50853;46.836;16.820;2024-02-26T04:49:51;9.90;87.80
64468;DHT22;50853;46.836;16.820;2024-02-26T04:52:18;9.90;87.40
64468;DHT22;50853;46.836;16.820;2024-02-26T04:54:44;9.90;87.60
64468;DHT22;50853;46.836;16.820;2024-02-26T04:57:10;9.90;87.70
64468;DHT22;50853;46.836;16.820;2024-02-26T04:59:36;9.90;88.10
64468;DHT22;50853;46.836;16.820;2024-02-26T05:02:01;9.80;87.60
64468;DHT22;50853;46.836;16.820;2024-02-26T05:04:28;9.80;87.50
64468;DHT22;50853;46.836;16.820;2024-02-26T05:06:53;9.90;88.00
64468;DHT22;50853;46.836;16.820;2024-02-26T05:09:19;9.90;87.80
64468;DHT22;50853;46.836;16.820;2024-02-26T05:11:45;9.80;87.20
64468;DHT22;50853;46.836;16.820;2024-02-26T05:14:11;9.90;87.40
64468;DHT22;50853;46.836;16.820;2024-02-26T05:16:37;9.90;88.50
64468;DHT22;50853;46.836;16.820;2024-02-26T05:19:02;9.90;87.50
64468;DHT22;50853;46.836;16.820;2024-02-26T05:21:29;9.90;87.90
64468;DHT22;50853;46.836;16.820;2024-02-26T05:23:55;9.90;87.60
64468;DHT22;50853;46.836;16.820;2024-02-26T05:26:21;9.80;87.50
64468;DHT22;50853;46.836;16.820;2024-02-26T05:28:48;9.90;87.60
64468;DHT22;50853;46.836;16.820;2024-02-26T05:31:14;9.80;87.60
64468;DHT22;50853;46.836;16.820;2024-02-26T05:33:41;9.80;87.70
64468;DHT22;50853;46.836;16.820;2024-02-26T05:36:07;9.90;87.60
64468;DHT22;50853;46.836;16.820;2024-02-26T05:38:32;9.80;87.40
64468;DHT22;50853;46.836;16.820;2024-02-26T05:40:59;9.80;87.20
64468;DHT22;50853;46.836;16.820;2024-02-26T05:43:25;9.80;87.50
64468;DHT22;50853;46.836;16.820;2024-02-26T05:45:51;9.80;87.20
64468;DHT22;50853;46.836;16.820;2024-02-26T05:48:17;9.80;87.20
64468;DHT22;50853;46.836;16.820;2024-02-26T05:50:45;9.80;87.10
64468;DHT22;50853;46.836;16.820;2024-02-26T05:53:11;9.80;86.80
64468;DHT22;50853;46.836;16.820;2024-02-26T05:55:37;9.80;87.40
64468;DHT22;50853;46.836;16.820;2024-02-26T05:58:03;9.80;87.40
64468;DHT22;50853;46.836;16.820;2024-02-26T06:00:29;9.80;87.10
64468;DHT22;50853;46.836;16.820;2024-02-26T06:02:55;9.80;86.90
64468;DHT22;50853;46.836;16.820;2024-02-26T06:05:21;9.80;87.00
64468;DHT22;50853;46.836;16.820;2024-02-26T06:07:47;9.90;86.70
64468;DHT22;50853;46.836;16.820;2024-02-26T06:10:13;9.80;86.50
64468;DHT22;50853;46.836;16.820;2024-02-26T06:12:41;9.80;86.90
64468;DHT22;50853;46.836;16.820;2024-02-26T06:15:07;9.90;86.90
64468;DHT22;50853;46.836;16.820;2024-02-26T06:17:33;9.90;86.90
64468;DHT22;50853;46.836;16.820;2024-02-26T06:19:59;9.90;86.20
64468;DHT22;50853;46.836;16.820;2024-02-26T06:22:26;9.90;85.50
64468;DHT22;50853;46.836;16.820;2024-02-26T06:24:51;9.90;84.90
64468;DHT22;50853;46.836;16.820;2024-02-26T06:27:17;9.90;84.90
64468;DHT22;50853;46.836;16.820;2024-02-26T06:29:43;9.90;84.80
64468;DHT22;50853;46.836;16.820;2024-02-26T06:32:09;9.90;84.20
64468;DHT22;50853;46.836;16.820;2024-02-26T06:34:35;9.90;84.00
64468;DHT22;50853;46.836;16.820;2024-02-26T06:37:01;10.00;83.70
64468;DHT22;50853;46.836;16.820;2024-02-26T06:39:26;10.00;83.50
64468;DHT22;50853;46.836;16.820;2024-02-26T06:41:52;10.00;84.00
64468;DHT22;50853;46.836;16.820;2024-02-26T06:44:26;10.00;84.10
64468;DHT22;50853;46.836;16.820;2024-02-26T06:47:00;10.10;85.50
64468;DHT22;50853;46.836;16.820;2024-02-26T06:49:26;10.10;86.10
64468;DHT22;50853;46.836;16.820;2024-02-26T06:51:52;10.20;86.60
64468;DHT22;50853;46.836;16.820;2024-02-26T06:54:18;10.20;87.70
64468;DHT22;50853;46.836;16.820;2024-02-26T06:56:44;10.20;87.40
64468;DHT22;50853;46.836;16.820;2024-02-26T06:59:10;10.30;87.60
64468;DHT22;50853;46.836;16.820;2024-02-26T07:01:36;10.30;87.50
64468;DHT22;50853;46.836;16.820;2024-02-26T07:04:01;10.40;87.10
64468;DHT22;50853;46.836;16.820;2024-02-26T07:06:27;10.30;86.90
64468;DHT22;50853;46.836;16.820;2024-02-26T07:08:53;10.40;86.80
64468;DHT22;50853;46.836;16.820;2024-02-26T07:11:19;10.50;86.30
64468;DHT22;50853;46.836;16.820;2024-02-26T07:13:48;10.50;85.90
64468;DHT22;50853;46.836;16.820;2024-02-26T07:16:15;10.60;85.40
64468;DHT22;50853;46.836;16.820;2024-02-26T07:18:41;10.60;85.10
64468;DHT22;50853;46.836;16.820;2024-02-26T07:21:08;10.60;85.40
64468;DHT22;50853;46.836;16.820;2024-02-26T07:23:34;10.60;85.70
64468;DHT22;50853;46.836;16.820;2024-02-26T07:26:00;10.60;86.00
64468;DHT22;50853;46.836;16.820;2024-02-26T07:28:26;10.60;86.10
64468;DHT22;50853;46.836;16.820;2024-02-26T07:30:52;10.60;86.20
64468;DHT22;50853;46.836;16.820;2024-02-26T07:33:17;10.60;86.20
64468;DHT22;50853;46.836;16.820;2024-02-26T07:35:43;10.60;86.20
64468;DHT22;50853;46.836;16.820;2024-02-26T07:38:09;10.60;86.10
64468;DHT22;50853;46.836;16.820;2024-02-26T07:40:35;10.60;86.10
64468;DHT22;50853;46.836;16.820;2024-02-26T07:43:01;10.60;86.00
64468;DHT22;50853;46.836;16.820;2024-02-26T07:45:27;10.60;86.00
64468;DHT22;50853;46.836;16.820;2024-02-26T07:47:53;10.60;86.10
64468;DHT22;50853;46.836;16.820;2024-02-26T07:50:19;10.70;86.20
64468;DHT22;50853;46.836;16.820;2024-02-26T07:52:45;10.70;86.30
64468;DHT22;50853;46.836;16.820;2024-02-26T07:55:11;10.70;86.50
64468;DHT22;50853;46.836;16.820;2024-02-26T07:57:37;10.70;86.50
64468;DHT22;50853;46.836;16.820;2024-02-26T08:00:04;10.70;86.60
64468;DHT22;50853;46.836;16.820;2024-02-26T08:02:35;10.70;86.60
64468;DHT22;50853;46.836;16.820;2024-02-26T08:05:01;10.80;86.60
64468;DHT22;50853;46.836;16.820;2024-02-26T08:07:27;10.80;86.60
64468;DHT22;50853;46.836;16.820;2024-02-26T08:09:54;10.80;86.60
64468;DHT22;50853;46.836;16.820;2024-02-26T08:12:20;10.80;86.60
64468;DHT22;50853;46.836;16.820;2024-02-26T08:14:46;10.80;86.60
64468;DHT22;50853;46.836;16.820;2024-02-26T08:17:13;10.80;86.70
64468;DHT22;50853;46.836;16.820;2024-02-26T08:19:39;10.90;86.80
64468;DHT22;50853;46.836;16.820;2024-02-26T08:22:04;10.90;86.80
64468;DHT22;50853;46.836;16.820;2024-02-26T08:24:30;10.90;86.90
64468;DHT22;50853;46.836;16.820;2024-02-26T08:26:56;10.90;86.80
64468;DHT22;50853;46.836;16.820;2024-02-26T08:29:22;10.90;86.80
64468;DHT22;50853;46.836;16.820;2024-02-26T08:31:48;11.00;86.80
64468;DHT22;50853;46.836;16.820;2024-02-26T08:34:14;11.00;86.80
64468;DHT22;50853;46.836;16.820;2024-02-26T08:36:40;11.00;86.70
64468;DHT22;50853;46.836;16.820;2024-02-26T08:39:05;11.00;86.60
64468;DHT22;50853;46.836;16.820;2024-02-26T08:41:33;11.00;86.50
64468;DHT22;50853;46.836;16.820;2024-02-26T08:43:58;11.10;86.50
64468;DHT22;50853;46.836;16.820;2024-02-26T08:46:24;11.10;86.30
64468;DHT22;50853;46.836;16.820;2024-02-26T08:48:50;11.10;86.20
64468;DHT22;50853;46.836;16.820;2024-02-26T08:51:16;11.20;86.10
64468;DHT22;50853;46.836;16.820;2024-02-26T08:53:42;11.20;85.90
64468;DHT22;50853;46.836;16.820;2024-02-26T08:56:08;11.20;85.80
64468;DHT22;50853;46.836;16.820;2024-02-26T08:58:33;11.20;85.70
64468;DHT22;50853;46.836;16.820;2024-02-26T09:00:59;11.20;85.60
64468;DHT22;50853;46.836;16.820;2024-02-26T09:03:25;11.30;85.50
64468;DHT22;50853;46.836;16.820;2024-02-26T09:05:51;11.30;85.40
64468;DHT22;50853;46.836;16.820;2024-02-26T09:08:17;11.30;85.30
64468;DHT22;50853;46.836;16.820;2024-02-26T09:10:43;11.30;85.20
64468;DHT22;50853;46.836;16.820;2024-02-26T09:13:09;11.30;85.00
64468;DHT22;50853;46.836;16.820;2024-02-26T09:15:34;11.40;84.80
64468;DHT22;50853;46.836;16.820;2024-02-26T09:18:00;11.40;85.00
64468;DHT22;50853;46.836;16.820;2024-02-26T09:20:27;11.40;84.70
64468;DHT22;50853;46.836;16.820;2024-02-26T09:22:52;11.40;84.60
64468;DHT22;50853;46.836;16.820;2024-02-26T09:25:19;11.50;84.60
64468;DHT22;50853;46.836;16.820;2024-02-26T09:27:45;11.50;84.20
64468;DHT22;50853;46.836;16.820;2024-02-26T09:30:11;11.50;84.20
64468;DHT22;50853;46.836;16.820;2024-02-26T09:32:38;11.50;84.10
64468;DHT22;50853;46.836;16.820;2024-02-26T09:35:05;11.60;84.00
64468;DHT22;50853;46.836;16.820;2024-02-26T09:37:31;11.60;83.80
64468;DHT22;50853;46.836;16.820;2024-02-26T09:39:56;11.60;83.60
64468;DHT22;50853;46.836;16.820;2024-02-26T09:42:26;11.60;83.60
64468;DHT22;50853;46.836;16.820;2024-02-26T09:44:54;11.60;83.60
64468;DHT22;50853;46.836;16.820;2024-02-26T09:47:23;11.60;83.50
64468;DHT22;50853;46.836;16.820;2024-02-26T09:49:53;11.60;83.50
64468;DHT22;50853;46.836;16.820;2024-02-26T09:52:20;11.60;83.50
64468;DHT22;50853;46.836;16.820;2024-02-26T09:54:49;11.60;83.40
64468;DHT22;50853;46.836;16.820;2024-02-26T09:57:16;11.60;83.40
64468;DHT22;50853;46.836;16.820;2024-02-26T09:59:43;11.70;83.60
64468;DHT22;50853;46.836;16.820;2024-02-26T10:02:13;11.70;83.40
64468;DHT22;50853;46.836;16.820;2024-02-26T10:04:42;11.70;83.10
64468;DHT22;50853;46.836;16.820;2024-02-26T10:07:12;11.70;83.40
64468;DHT22;50853;46.836;16.820;2024-02-26T10:09:39;11.70;83.30
64468;DHT22;50853;46.836;16.820;2024-02-26T10:12:06;11.80;83.20
64468;DHT22;50853;46.836;16.820;2024-02-26T10:14:33;11.80;83.10
64468;DHT22;50853;46.836;16.820;2024-02-26T10:16:59;11.80;82.80
64468;DHT22;50853;46.836;16.820;2024-02-26T10:19:30;11.80;82.60
64468;DHT22;50853;46.836;16.820;2024-02-26T10:21:57;11.90;82.40
64468;DHT22;50853;46.836;16.820;2024-02-26T10:24:23;11.90;82.30
64468;DHT22;50853;46.836;16.820;2024-02-26T10:26:51;11.90;82.20
64468;DHT22;50853;46.836;16.820;2024-02-26T10:29:19;11.90;82.10
64468;DHT22;50853;46.836;16.820;2024-02-26T10:31:45;12.00;81.90
64468;DHT22;50853;46.836;16.820;2024-02-26T10:34:11;12.00;81.70
64468;DHT22;50853;46.836;16.820;2024-02-26T10:36:37;12.00;81.70
64468;DHT22;50853;46.836;16.820;2024-02-26T10:39:06;12.00;81.70
64468;DHT22;50853;46.836;16.820;2024-02-26T10:41:35;12.00;81.70
64468;DHT22;50853;46.836;16.820;2024-02-26T10:44:01;12.00;81.70
64468;DHT22;50853;46.836;16.820;2024-02-26T10:46:28;12.00;81.60
64468;DHT22;50853;46.836;16.820;2024-02-26T10:48:54;12.10;81.40
64468;DHT22;50853;46.836;16.820;2024-02-26T10:51:29;12.10;81.10
64468;DHT22;50853;46.836;16.820;2024-02-26T10:53:57;12.10;81.30
64468;DHT22;50853;46.836;16.820;2024-02-26T10:56:26;12.10;81.40
64468;DHT22;50853;46.836;16.820;2024-02-26T10:58:55;12.10;81.30
64468;DHT22;50853;46.836;16.820;2024-02-26T11:01:22;12.10;81.30
64468;DHT22;50853;46.836;16.820;2024-02-26T11:03:52;12.10;81.10
64468;DHT22;50853;46.836;16.820;2024-02-26T11:06:19;12.20;80.80
64468;DHT22;50853;46.836;16.820;2024-02-26T11:08:53;12.20;80.90
64468;DHT22;50853;46.836;16.820;2024-02-26T11:11:20;12.20;80.80
64468;DHT22;50853;46.836;16.820;2024-02-26T11:13:48;12.20;81.10
64468;DHT22;50853;46.836;16.820;2024-02-26T11:16:21;12.10;81.10
64468;DHT22;50853;46.836;16.820;2024-02-26T11:18:48;12.20;81.20
64468;DHT22;50853;46.836;16.820;2024-02-26T11:21:17;12.20;81.10
64468;DHT22;50853;46.836;16.820;2024-02-26T11:23:53;12.20;80.80
64468;DHT22;50853;46.836;16.820;2024-02-26T11:26:21;12.30;80.60
64468;DHT22;50853;46.836;16.820;2024-02-26T11:28:49;12.30;80.00
64468;DHT22;50853;46.836;16.820;2024-02-26T11:31:17;12.40;79.80
64468;DHT22;50853;46.836;16.820;2024-02-26T11:33:46;12.40;79.90
64468;DHT22;50853;46.836;16.820;2024-02-26T11:36:13;12.40;79.60
64468;DHT22;50853;46.836;16.820;2024-02-26T11:38:40;12.40;79.50
64468;DHT22;50853;46.836;16.820;2024-02-26T11:41:06;12.40;79.50
64468;DHT22;50853;46.836;16.820;2024-02-26T11:44:05;12.40;79.50
64468;DHT22;50853;46.836;16.820;2024-02-26T11:46:38;12.40;79.70
64468;DHT22;50853;46.836;16.820;2024-02-26T11:51:57;12.40;79.80
64468;DHT22;50853;46.836;16.820;2024-02-26T11:54:53;12.40;79.50
64468;DHT22;50853;46.836;16.820;2024-02-26T11:57:29;12.40;80.00
64468;DHT22;50853;46.836;16.820;2024-02-26T12:00:15;12.40;79.80
64468;DHT22;50853;46.836;16.820;2024-02-26T12:05:22;12.40;80.00
64468;DHT22;50853;46.836;16.820;2024-02-26T12:08:07;12.40;80.10
64468;DHT22;50853;46.836;16.820;2024-02-26T12:10:37;12.40;80.70
64468;DHT22;50853;46.836;16.820;2024-02-26T12:13:09;12.40;80.30
64468;DHT22;50853;46.836;16.820;2024-02-26T12:15:43;12.30;80.40
64468;DHT22;50853;46.836;16.820;2024-02-26T12:18:15;12.30;80.50
64468;DHT22;50853;46.836;16.820;2024-02-26T12:20:41;12.30;80.70
64468;DHT22;50853;46.836;16.820;2024-02-26T12:23:07;12.30;80.80
64468;DHT22;50853;46.836;16.820;2024-02-26T12:25:33;12.30;80.90
64468;DHT22;50853;46.836;16.820;2024-02-26T12:27:59;12.30;81.10
64468;DHT22;50853;46.836;16.820;2024-02-26T12:30:26;12.20;81.20
64468;DHT22;50853;46.836;16.820;2024-02-26T12:32:56;12.20;81.20
64468;DHT22;50853;46.836;16.820;2024-02-26T12:35:23;12.30;81.50
64468;DHT22;50853;46.836;16.820;2024-02-26T12:37:49;12.30;81.50
64468;DHT22;50853;46.836;16.820;2024-02-26T12:40:17;12.30;81.20
64468;DHT22;50853;46.836;16.820;2024-02-26T12:42:43;12.30;81.30
64468;DHT22;50853;46.836;16.820;2024-02-26T12:45:13;12.30;81.10
64468;DHT22;50853;46.836;16.820;2024-02-26T12:47:41;12.30;80.90
64468;DHT22;50853;46.836;16.820;2024-02-26T12:50:08;12.30;81.00
64468;DHT22;50853;46.836;16.820;2024-02-26T12:52:37;12.30;81.10
64468;DHT22;50853;46.836;16.820;2024-02-26T12:55:05;12.20;80.80
64468;DHT22;50853;46.836;16.820;2024-02-26T12:57:36;12.30;81.10
64468;DHT22;50853;46.836;16.820;2024-02-26T13:00:07;12.20;81.10
64468;DHT22;50853;46.836;16.820;2024-02-26T13:02:37;12.20;81.50
64468;DHT22;50853;46.836;16.820;2024-02-26T13:05:04;12.20;82.00
64468;DHT22;50853;46.836;16.820;2024-02-26T13:07:31;12.20;81.80
64468;DHT22;50853;46.836;16.820;2024-02-26T13:09:57;12.10;82.10
64468;DHT22;50853;46.836;16.820;2024-02-26T13:12:23;12.10;82.30
64468;DHT22;50853;46.836;16.820;2024-02-26T13:15:07;12.10;82.40
64468;DHT22;50853;46.836;16.820;2024-02-26T13:17:35;12.10;82.70
64468;DHT22;50853;46.836;16.820;2024-02-26T13:20:01;12.00;82.90
64468;DHT22;50853;46.836;16.820;2024-02-26T13:22:29;12.00;83.00
64468;DHT22;50853;46.836;16.820;2024-02-26T13:24:59;12.00;83.00
64468;DHT22;50853;46.836;16.820;2024-02-26T13:27:26;12.00;83.20
64468;DHT22;50853;46.836;16.820;2024-02-26T13:30:05;12.00;83.40
64468;DHT22;50853;46.836;16.820;2024-02-26T13:32:35;12.00;83.40
64468;DHT22;50853;46.836;16.820;2024-02-26T13:35:06;12.00;83.70
64468;DHT22;50853;46.836;16.820;2024-02-26T13:37:33;11.90;83.80
64468;DHT22;50853;46.836;16.820;2024-02-26T13:39:59;11.90;83.90
64468;DHT22;50853;46.836;16.820;2024-02-26T13:42:25;11.90;84.10
64468;DHT22;50853;46.836;16.820;2024-02-26T13:44:51;11.90;84.10
64468;DHT22;50853;46.836;16.820;2024-02-26T13:47:17;11.90;84.30
64468;DHT22;50853;46.836;16.820;2024-02-26T13:49:44;11.80;84.50
64468;DHT22;50853;46.836;16.820;2024-02-26T13:52:09;11.80;84.40
64468;DHT22;50853;46.836;16.820;2024-02-26T13:54:35;11.80;84.60
64468;DHT22;50853;46.836;16.820;2024-02-26T13:57:04;11.80;84.70
64468;DHT22;50853;46.836;16.820;2024-02-26T13:59:30;11.80;84.90
64468;DHT22;50853;46.836;16.820;2024-02-26T14:01:55;11.80;85.10
64468;DHT22;50853;46.836;16.820;2024-02-26T14:04:21;11.70;84.90
64468;DHT22;50853;46.836;16.820;2024-02-26T14:06:47;11.70;85.00
64468;DHT22;50853;46.836;16.820;2024-02-26T14:09:13;11.70;85.30
64468;DHT22;50853;46.836;16.820;2024-02-26T14:11:45;11.70;85.50
64468;DHT22;50853;46.836;16.820;2024-02-26T14:14:11;11.70;85.80
64468;DHT22;50853;46.836;16.820;2024-02-26T14:16:37;11.70;85.70
64468;DHT22;50853;46.836;16.820;2024-02-26T14:19:03;11.70;85.70
64468;DHT22;50853;46.836;16.820;2024-02-26T14:21:29;11.60;85.90
64468;DHT22;50853;46.836;16.820;2024-02-26T14:23:58;11.70;86.00
64468;DHT22;50853;46.836;16.820;2024-02-26T14:26:24;11.70;85.80
64468;DHT22;50853;46.836;16.820;2024-02-26T14:28:49;11.70;85.80
64468;DHT22;50853;46.836;16.820;2024-02-26T14:31:18;11.70;85.60
64468;DHT22;50853;46.836;16.820;2024-02-26T14:33:44;11.70;85.50
64468;DHT22;50853;46.836;16.820;2024-02-26T14:36:11;11.80;85.60
64468;DHT22;50853;46.836;16.820;2024-02-26T14:38:37;11.70;85.50
64468;DHT22;50853;46.836;16.820;2024-02-26T14:41:05;11.70;85.40
64468;DHT22;50853;46.836;16.820;2024-02-26T14:43:31;11.70;85.60
64468;DHT22;50853;46.836;16.820;2024-02-26T14:45:58;11.70;85.80
64468;DHT22;50853;46.836;16.820;2024-02-26T14:48:24;11.70;85.80
64468;DHT22;50853;46.836;16.820;2024-02-26T14:50:50;11.70;85.80
64468;DHT22;50853;46.836;16.820;2024-02-26T14:53:17;11.70;85.90
64468;DHT22;50853;46.836;16.820;2024-02-26T14:55:43;11.70;86.00
64468;DHT22;50853;46.836;16.820;2024-02-26T14:58:09;11.70;86.10
64468;DHT22;50853;46.836;16.820;2024-02-26T15:00:39;11.70;86.00
64468;DHT22;50853;46.836;16.820;2024-02-26T15:03:05;11.70;85.70
64468;DHT22;50853;46.836;16.820;2024-02-26T15:05:32;11.80;80.60
64468;DHT22;50853;46.836;16.820;2024-02-26T15:07:58;12.20;81.00
64468;DHT22;50853;46.836;16.820;2024-02-26T15:10:25;12.40;72.20
64468;DHT22;50853;46.836;16.820;2024-02-26T15:12:51;12.60;73.00
64468;DHT22;50853;46.836;16.820;2024-02-26T15:15:21;12.70;71.10
64468;DHT22;50853;46.836;16.820;2024-02-26T15:17:47;12.80;72.90
64468;DHT22;50853;46.836;16.820;2024-02-26T15:20:14;12.90;71.00
64468;DHT22;50853;46.836;16.820;2024-02-26T15:22:40;12.90;65.90
64468;DHT22;50853;46.836;16.820;2024-02-26T15:25:07;12.90;63.50